Main page
Satellite images 15-day forecastsClimateMarine weather Cyclones Lightning AirportsFAQ Newsletter About
Weather : Europe Africa North America South America Asia Australia-Oceania Others
Languages Contact

Bordeaux, France

Merignac

latitude: 44-50N, longitude: 000-42W, elevation: 49 m


METAR: LFBD 220630Z AUTO 00000KT 2100 BR NSC M01/M01 Q1033
TAF: LFBD 220500Z 2206/2312 VRB03KT CAVOK TEMPO 2206/2209 0300 BCFG TEMPO 2222/2309 5000 BCFG

Time: 07:58 (06:58 UTC)

Current weather observation

The report was made 28 minutes ago, at 06:30 UTC
Calm wind
Temperature -1°C
Humidity 100%
Pressure 1033 hPa
Visibility: 2100 m
mist

Change units

Forecast

The report was made 1 hour and 58 minutes ago, at 05:00 UTC
Forecast valid from 22 at 06 UTC to 23 at 12 UTC
Wind 3 kt from variable directions
Visibility 10 km or more
no clouds below 1500 m and no cumulonimbus
Temporary
from 22 at 06 UTC to 22 at 09 UTC
Visibility: 0300 m
patches of fog
Temporary
from 22 at 22 UTC to 23 at 09 UTC
Visibility: 5000 m
patches of fog
The information on this site is subject to a disclaimer
Weather : Europe Africa North America South America Asia Australia-Oceania Others
Satellite images 15-day forecastsClimateMarine weather Cyclones Lightning AirportsFAQ Languages Contact Newsletter About